sensor_id;sensor_type;location;lat;lon;timestamp;P1;durP1;ratioP1;P2;durP2;ratioP2
8353;SDS011;4656;48.090;11.498;2023-08-21T17:11:40;4.72;;;4.10;;
8353;SDS011;4656;48.090;11.498;2023-08-21T17:13:42;6.03;;;4.07;;
8353;SDS011;4656;48.090;11.498;2023-08-21T17:15:46;7.38;;;3.95;;
8353;SDS011;4656;48.090;11.498;2023-08-21T17:17:49;7.07;;;4.20;;
8353;SDS011;4656;48.090;11.498;2023-08-21T17:19:51;10.93;;;4.30;;
8353;SDS011;4656;48.090;11.498;2023-08-21T17:21:53;4.85;;;4.10;;
8353;SDS011;4656;48.090;11.498;2023-08-21T17:23:55;4.38;;;3.85;;
8353;SDS011;4656;48.090;11.498;2023-08-21T17:25:57;6.68;;;4.57;;
8353;SDS011;4656;48.090;11.498;2023-08-21T17:28:01;9.23;;;4.50;;
8353;SDS011;4656;48.090;11.498;2023-08-21T17:30:04;5.60;;;4.28;;
8353;SDS011;4656;48.090;11.498;2023-08-21T17:32:09;5.93;;;4.75;;
8353;SDS011;4656;48.090;11.498;2023-08-21T17:34:12;4.90;;;4.18;;
8353;SDS011;4656;48.090;11.498;2023-08-21T17:36:14;6.10;;;3.90;;
8353;SDS011;4656;48.090;11.498;2023-08-21T17:38:16;6.03;;;4.25;;
8353;SDS011;4656;48.090;11.498;2023-08-21T17:40:18;6.03;;;4.47;;
8353;SDS011;4656;48.090;11.498;2023-08-21T17:42:20;5.15;;;3.88;;
8353;SDS011;4656;48.090;11.498;2023-08-21T17:44:24;7.35;;;4.72;;
8353;SDS011;4656;48.090;11.498;2023-08-21T17:46:26;7.03;;;4.65;;
8353;SDS011;4656;48.090;11.498;2023-08-21T17:48:28;6.38;;;4.07;;
8353;SDS011;4656;48.090;11.498;2023-08-21T17:50:30;5.93;;;4.27;;
8353;SDS011;4656;48.090;11.498;2023-08-21T17:52:32;4.70;;;4.20;;
8353;SDS011;4656;48.090;11.498;2023-08-21T17:54:34;6.45;;;4.40;;
8353;SDS011;4656;48.090;11.498;2023-08-21T17:56:37;5.38;;;4.00;;
8353;SDS011;4656;48.090;11.498;2023-08-21T17:58:39;9.25;;;4.50;;
8353;SDS011;4656;48.090;11.498;2023-08-21T18:00:41;9.13;;;4.30;;
8353;SDS011;4656;48.090;11.498;2023-08-21T18:02:43;6.25;;;4.47;;
8353;SDS011;4656;48.090;11.498;2023-08-21T18:04:46;4.47;;;4.07;;
8353;SDS011;4656;48.090;11.498;2023-08-21T18:06:48;4.75;;;4.35;;
8353;SDS011;4656;48.090;11.498;2023-08-21T18:08:50;9.43;;;4.40;;
8353;SDS011;4656;48.090;11.498;2023-08-21T18:10:52;6.40;;;4.57;;
8353;SDS011;4656;48.090;11.498;2023-08-21T18:12:54;4.87;;;4.30;;
8353;SDS011;4656;48.090;11.498;2023-08-21T18:14:56;5.43;;;4.45;;
8353;SDS011;4656;48.090;11.498;2023-08-21T18:17:00;6.10;;;5.45;;
8353;SDS011;4656;48.090;11.498;2023-08-21T18:19:03;10.85;;;4.85;;
8353;SDS011;4656;48.090;11.498;2023-08-21T18:21:07;7.32;;;4.30;;
8353;SDS011;4656;48.090;11.498;2023-08-21T18:23:09;10.25;;;4.60;;
8353;SDS011;4656;48.090;11.498;2023-08-21T18:25:10;6.32;;;4.40;;
8353;SDS011;4656;48.090;11.498;2023-08-21T18:27:13;7.10;;;4.50;;
8353;SDS011;4656;48.090;11.498;2023-08-21T18:29:15;8.70;;;4.90;;
8353;SDS011;4656;48.090;11.498;2023-08-21T18:31:17;9.18;;;4.50;;
8353;SDS011;4656;48.090;11.498;2023-08-21T18:33:21;6.78;;;4.60;;
8353;SDS011;4656;48.090;11.498;2023-08-21T18:35:23;6.30;;;4.50;;
8353;SDS011;4656;48.090;11.498;2023-08-21T18:37:25;6.23;;;5.00;;
8353;SDS011;4656;48.090;11.498;2023-08-21T18:39:27;8.02;;;5.00;;
8353;SDS011;4656;48.090;11.498;2023-08-21T18:41:30;8.13;;;4.75;;
8353;SDS011;4656;48.090;11.498;2023-08-21T18:43:32;10.17;;;4.87;;
8353;SDS011;4656;48.090;11.498;2023-08-21T18:45:35;7.05;;;4.80;;
8353;SDS011;4656;48.090;11.498;2023-08-21T18:47:36;11.48;;;5.30;;
8353;SDS011;4656;48.090;11.498;2023-08-21T18:49:39;8.47;;;4.93;;
8353;SDS011;4656;48.090;11.498;2023-08-21T18:51:42;7.93;;;5.32;;
8353;SDS011;4656;48.090;11.498;2023-08-21T18:53:44;8.88;;;5.22;;
8353;SDS011;4656;48.090;11.498;2023-08-21T18:55:46;6.85;;;5.20;;
8353;SDS011;4656;48.090;11.498;2023-08-21T18:57:48;5.78;;;5.15;;
8353;SDS011;4656;48.090;11.498;2023-08-21T18:59:51;8.80;;;5.53;;
8353;SDS011;4656;48.090;11.498;2023-08-21T19:01:53;7.75;;;5.40;;
8353;SDS011;4656;48.090;11.498;2023-08-21T19:03:55;6.20;;;5.35;;
8353;SDS011;4656;48.090;11.498;2023-08-21T19:05:59;10.73;;;5.60;;
8353;SDS011;4656;48.090;11.498;2023-08-21T19:08:01;8.43;;;6.82;;
8353;SDS011;4656;48.090;11.498;2023-08-21T19:10:04;12.13;;;6.15;;
8353;SDS011;4656;48.090;11.498;2023-08-21T19:12:06;8.45;;;6.07;;
8353;SDS011;4656;48.090;11.498;2023-08-21T19:14:08;11.95;;;5.95;;
8353;SDS011;4656;48.090;11.498;2023-08-21T19:16:10;8.38;;;6.28;;
8353;SDS011;4656;48.090;11.498;2023-08-21T19:18:12;10.43;;;6.18;;
8353;SDS011;4656;48.090;11.498;2023-08-21T19:20:15;7.75;;;6.25;;
8353;SDS011;4656;48.090;11.498;2023-08-21T19:22:17;8.45;;;5.93;;
8353;SDS011;4656;48.090;11.498;2023-08-21T19:24:20;11.50;;;6.80;;
8353;SDS011;4656;48.090;11.498;2023-08-21T19:26:22;7.45;;;6.00;;
8353;SDS011;4656;48.090;11.498;2023-08-21T19:28:25;7.63;;;5.88;;
8353;SDS011;4656;48.090;11.498;2023-08-21T19:30:27;8.43;;;6.00;;
8353;SDS011;4656;48.090;11.498;2023-08-21T19:32:29;8.73;;;6.00;;
8353;SDS011;4656;48.090;11.498;2023-08-21T19:34:32;9.55;;;5.75;;
8353;SDS011;4656;48.090;11.498;2023-08-21T19:36:34;9.20;;;6.43;;
8353;SDS011;4656;48.090;11.498;2023-08-21T19:38:38;8.55;;;6.20;;
8353;SDS011;4656;48.090;11.498;2023-08-21T19:40:40;11.98;;;6.03;;
8353;SDS011;4656;48.090;11.498;2023-08-21T19:42:43;8.98;;;6.40;;
8353;SDS011;4656;48.090;11.498;2023-08-21T19:44:45;9.63;;;6.22;;
8353;SDS011;4656;48.090;11.498;2023-08-21T19:46:47;7.55;;;5.97;;
8353;SDS011;4656;48.090;11.498;2023-08-21T19:48:49;9.48;;;5.95;;
8353;SDS011;4656;48.090;11.498;2023-08-21T19:50:55;9.30;;;6.00;;
8353;SDS011;4656;48.090;11.498;2023-08-21T19:52:57;7.40;;;5.75;;
8353;SDS011;4656;48.090;11.498;2023-08-21T19:55:01;7.95;;;6.00;;
8353;SDS011;4656;48.090;11.498;2023-08-21T19:57:04;7.68;;;5.80;;
8353;SDS011;4656;48.090;11.498;2023-08-21T19:59:06;9.65;;;5.95;;
8353;SDS011;4656;48.090;11.498;2023-08-21T20:01:08;7.63;;;5.65;;
8353;SDS011;4656;48.090;11.498;2023-08-21T20:03:10;7.15;;;5.90;;
8353;SDS011;4656;48.090;11.498;2023-08-21T20:05:13;9.93;;;6.10;;
8353;SDS011;4656;48.090;11.498;2023-08-21T20:07:15;8.52;;;6.07;;
8353;SDS011;4656;48.090;11.498;2023-08-21T20:09:17;7.43;;;6.20;;
8353;SDS011;4656;48.090;11.498;2023-08-21T20:11:21;11.05;;;6.38;;
8353;SDS011;4656;48.090;11.498;2023-08-21T20:13:24;8.77;;;5.97;;
8353;SDS011;4656;48.090;11.498;2023-08-21T20:15:27;8.90;;;6.53;;
8353;SDS011;4656;48.090;11.498;2023-08-21T20:17:29;7.75;;;6.28;;
8353;SDS011;4656;48.090;11.498;2023-08-21T20:19:31;10.10;;;6.63;;
8353;SDS011;4656;48.090;11.498;2023-08-21T20:21:33;8.85;;;7.25;;
8353;SDS011;4656;48.090;11.498;2023-08-21T20:23:35;9.57;;;7.30;;
8353;SDS011;4656;48.090;11.498;2023-08-21T20:25:37;7.80;;;6.82;;
8353;SDS011;4656;48.090;11.498;2023-08-21T20:27:41;10.80;;;6.63;;
8353;SDS011;4656;48.090;11.498;2023-08-21T20:29:43;8.27;;;6.80;;
8353;SDS011;4656;48.090;11.498;2023-08-21T20:31:45;8.98;;;6.93;;
8353;SDS011;4656;48.090;11.498;2023-08-21T20:33:47;8.05;;;7.25;;
8353;SDS011;4656;48.090;11.498;2023-08-21T20:35:48;7.97;;;7.18;;
8353;SDS011;4656;48.090;11.498;2023-08-21T20:37:51;12.35;;;7.45;;
8353;SDS011;4656;48.090;11.498;2023-08-21T20:39:53;10.65;;;7.43;;
8353;SDS011;4656;48.090;11.498;2023-08-21T20:41:55;11.48;;;7.43;;
8353;SDS011;4656;48.090;11.498;2023-08-21T20:43:59;10.93;;;7.47;;
8353;SDS011;4656;48.090;11.498;2023-08-21T20:46:02;9.50;;;7.50;;
8353;SDS011;4656;48.090;11.498;2023-08-21T20:48:04;9.60;;;7.25;;
8353;SDS011;4656;48.090;11.498;2023-08-21T20:50:06;8.95;;;7.18;;
8353;SDS011;4656;48.090;11.498;2023-08-21T20:52:09;12.05;;;8.10;;
8353;SDS011;4656;48.090;11.498;2023-08-21T20:54:11;10.63;;;7.50;;
8353;SDS011;4656;48.090;11.498;2023-08-21T20:56:13;9.68;;;7.55;;
8353;SDS011;4656;48.090;11.498;2023-08-21T20:58:15;10.18;;;7.80;;
8353;SDS011;4656;48.090;11.498;2023-08-21T21:00:20;9.57;;;7.70;;
8353;SDS011;4656;48.090;11.498;2023-08-21T21:02:22;9.63;;;7.40;;
8353;SDS011;4656;48.090;11.498;2023-08-21T21:04:24;9.40;;;7.28;;
8353;SDS011;4656;48.090;11.498;2023-08-21T21:06:26;10.23;;;7.60;;
8353;SDS011;4656;48.090;11.498;2023-08-21T21:08:29;10.27;;;7.72;;
8353;SDS011;4656;48.090;11.498;2023-08-21T21:10:32;8.15;;;7.32;;
8353;SDS011;4656;48.090;11.498;2023-08-21T21:12:34;9.27;;;8.23;;
8353;SDS011;4656;48.090;11.498;2023-08-21T21:14:36;9.60;;;8.13;;
8353;SDS011;4656;48.090;11.498;2023-08-21T21:16:40;9.65;;;7.90;;
8353;SDS011;4656;48.090;11.498;2023-08-21T21:18:43;10.02;;;7.78;;
8353;SDS011;4656;48.090;11.498;2023-08-21T21:20:45;8.82;;;7.93;;
8353;SDS011;4656;48.090;11.498;2023-08-21T21:22:47;9.27;;;7.75;;
8353;SDS011;4656;48.090;11.498;2023-08-21T21:24:49;8.98;;;7.93;;
8353;SDS011;4656;48.090;11.498;2023-08-21T21:26:51;9.65;;;7.68;;
8353;SDS011;4656;48.090;11.498;2023-08-21T21:28:54;9.75;;;7.72;;
8353;SDS011;4656;48.090;11.498;2023-08-21T21:30:56;11.40;;;8.43;;
8353;SDS011;4656;48.090;11.498;2023-08-21T21:33:00;8.93;;;7.57;;
8353;SDS011;4656;48.090;11.498;2023-08-21T21:35:02;10.93;;;8.30;;
8353;SDS011;4656;48.090;11.498;2023-08-21T21:37:03;12.77;;;8.38;;
8353;SDS011;4656;48.090;11.498;2023-08-21T21:39:05;10.18;;;8.30;;
8353;SDS011;4656;48.090;11.498;2023-08-21T21:41:08;13.10;;;8.73;;
8353;SDS011;4656;48.090;11.498;2023-08-21T21:43:10;11.13;;;7.93;;
8353;SDS011;4656;48.090;11.498;2023-08-21T21:45:12;10.02;;;8.80;;
8353;SDS011;4656;48.090;11.498;2023-08-21T21:47:14;11.93;;;8.43;;
8353;SDS011;4656;48.090;11.498;2023-08-21T21:49:17;10.63;;;8.10;;
8353;SDS011;4656;48.090;11.498;2023-08-21T21:51:19;8.90;;;7.78;;
8353;SDS011;4656;48.090;11.498;2023-08-21T21:53:23;9.13;;;7.90;;
8353;SDS011;4656;48.090;11.498;2023-08-21T21:55:25;9.23;;;8.02;;
8353;SDS011;4656;48.090;11.498;2023-08-21T21:57:27;10.52;;;7.97;;
8353;SDS011;4656;48.090;11.498;2023-08-21T21:59:30;11.80;;;8.10;;
8353;SDS011;4656;48.090;11.498;2023-08-21T22:01:32;10.93;;;8.23;;
8353;SDS011;4656;48.090;11.498;2023-08-21T22:03:34;9.13;;;8.03;;
8353;SDS011;4656;48.090;11.498;2023-08-21T22:05:38;11.40;;;7.95;;
8353;SDS011;4656;48.090;11.498;2023-08-21T22:07:41;9.60;;;8.15;;
8353;SDS011;4656;48.090;11.498;2023-08-21T22:09:43;11.57;;;8.60;;
8353;SDS011;4656;48.090;11.498;2023-08-21T22:11:46;10.00;;;8.17;;
8353;SDS011;4656;48.090;11.498;2023-08-21T22:13:48;10.50;;;8.48;;
8353;SDS011;4656;48.090;11.498;2023-08-21T22:15:50;9.07;;;8.15;;
8353;SDS011;4656;48.090;11.498;2023-08-21T22:17:52;12.45;;;8.68;;
8353;SDS011;4656;48.090;11.498;2023-08-21T22:19:54;9.77;;;7.80;;
8353;SDS011;4656;48.090;11.498;2023-08-21T22:21:58;9.90;;;8.45;;
8353;SDS011;4656;48.090;11.498;2023-08-21T22:24:01;9.75;;;8.40;;
8353;SDS011;4656;48.090;11.498;2023-08-21T22:26:03;10.60;;;8.20;;
8353;SDS011;4656;48.090;11.498;2023-08-21T22:28:05;9.30;;;8.40;;
8353;SDS011;4656;48.090;11.498;2023-08-21T22:30:07;10.35;;;8.07;;
8353;SDS011;4656;48.090;11.498;2023-08-21T22:32:10;8.75;;;7.88;;
8353;SDS011;4656;48.090;11.498;2023-08-21T22:34:12;11.20;;;8.35;;
8353;SDS011;4656;48.090;11.498;2023-08-21T22:36:14;9.15;;;8.20;;
8353;SDS011;4656;48.090;11.498;2023-08-21T22:38:17;9.50;;;7.97;;
8353;SDS011;4656;48.090;11.498;2023-08-21T22:40:19;11.05;;;8.07;;
8353;SDS011;4656;48.090;11.498;2023-08-21T22:42:25;9.27;;;7.80;;
8353;SDS011;4656;48.090;11.498;2023-08-21T22:44:27;10.05;;;7.82;;
8353;SDS011;4656;48.090;11.498;2023-08-21T22:46:29;8.48;;;7.65;;
8353;SDS011;4656;48.090;11.498;2023-08-21T22:48:31;8.23;;;7.30;;
8353;SDS011;4656;48.090;11.498;2023-08-21T22:50:36;9.18;;;7.53;;
8353;SDS011;4656;48.090;11.498;2023-08-21T22:52:37;9.40;;;8.07;;
8353;SDS011;4656;48.090;11.498;2023-08-21T22:54:41;8.70;;;7.80;;
8353;SDS011;4656;48.090;11.498;2023-08-21T22:56:43;10.00;;;7.95;;
8353;SDS011;4656;48.090;11.498;2023-08-21T22:58:45;8.57;;;7.70;;
8353;SDS011;4656;48.090;11.498;2023-08-21T23:00:47;8.32;;;7.53;;
8353;SDS011;4656;48.090;11.498;2023-08-21T23:02:49;9.05;;;7.50;;
8353;SDS011;4656;48.090;11.498;2023-08-21T23:04:51;8.60;;;7.67;;
8353;SDS011;4656;48.090;11.498;2023-08-21T23:06:53;8.70;;;7.78;;
8353;SDS011;4656;48.090;11.498;2023-08-21T23:08:55;10.80;;;7.57;;
8353;SDS011;4656;48.090;11.498;2023-08-21T23:10:59;9.25;;;7.43;;
8353;SDS011;4656;48.090;11.498;2023-08-21T23:13:01;8.70;;;7.10;;
8353;SDS011;4656;48.090;11.498;2023-08-21T23:15:03;10.45;;;7.68;;
8353;SDS011;4656;48.090;11.498;2023-08-21T23:17:06;8.07;;;6.93;;
8353;SDS011;4656;48.090;11.498;2023-08-21T23:19:07;11.43;;;7.22;;
8353;SDS011;4656;48.090;11.498;2023-08-21T23:21:09;10.93;;;7.40;;
8353;SDS011;4656;48.090;11.498;2023-08-21T23:23:11;9.63;;;7.10;;
8353;SDS011;4656;48.090;11.498;2023-08-21T23:25:14;8.50;;;7.00;;
8353;SDS011;4656;48.090;11.498;2023-08-21T23:27:17;8.90;;;7.30;;
8353;SDS011;4656;48.090;11.498;2023-08-21T23:29:18;11.00;;;8.15;;
8353;SDS011;4656;48.090;11.498;2023-08-21T23:31:21;8.75;;;6.75;;
8353;SDS011;4656;48.090;11.498;2023-08-21T23:33:23;6.90;;;6.10;;
8353;SDS011;4656;48.090;11.498;2023-08-21T23:35:25;6.85;;;6.10;;
8353;SDS011;4656;48.090;11.498;2023-08-21T23:37:27;7.88;;;6.50;;
8353;SDS011;4656;48.090;11.498;2023-08-21T23:39:31;8.55;;;6.05;;
8353;SDS011;4656;48.090;11.498;2023-08-21T23:41:33;7.88;;;6.20;;
8353;SDS011;4656;48.090;11.498;2023-08-21T23:43:36;7.97;;;6.53;;
8353;SDS011;4656;48.090;11.498;2023-08-21T23:45:38;8.38;;;6.80;;
8353;SDS011;4656;48.090;11.498;2023-08-21T23:47:41;9.05;;;6.25;;
8353;SDS011;4656;48.090;11.498;2023-08-21T23:49:42;8.50;;;6.43;;
8353;SDS011;4656;48.090;11.498;2023-08-21T23:51:44;9.40;;;6.23;;
8353;SDS011;4656;48.090;11.498;2023-08-21T23:53:45;9.13;;;6.05;;
8353;SDS011;4656;48.090;11.498;2023-08-21T23:55:48;9.75;;;6.38;;
8353;SDS011;4656;48.090;11.498;2023-08-21T23:57:50;7.85;;;6.20;;
8353;SDS011;4656;48.090;11.498;2023-08-21T23:59:54;7.10;;;6.40;;
